sensor_id;sensor_type;location;lat;lon;timestamp;temperature;humidity
23629;DHT22;11991;57.150;-2.134;2023-07-13T00:01:56;15.70;99.90
23629;DHT22;11991;57.150;-2.134;2023-07-13T00:04:24;15.70;99.90
23629;DHT22;11991;57.150;-2.134;2023-07-13T00:06:56;15.60;99.90
23629;DHT22;11991;57.150;-2.134;2023-07-13T00:09:23;15.60;99.90
23629;DHT22;11991;57.150;-2.134;2023-07-13T00:11:56;15.60;99.90
23629;DHT22;11991;57.150;-2.134;2023-07-13T00:14:25;15.60;99.90
23629;DHT22;11991;57.150;-2.134;2023-07-13T00:16:52;15.60;99.90
23629;DHT22;11991;57.150;-2.134;2023-07-13T00:19:20;15.60;99.90
23629;DHT22;11991;57.150;-2.134;2023-07-13T00:21:48;15.60;99.90
23629;DHT22;11991;57.150;-2.134;2023-07-13T00:24:17;15.60;99.90
23629;DHT22;11991;57.150;-2.134;2023-07-13T00:26:51;15.60;99.90
23629;DHT22;11991;57.150;-2.134;2023-07-13T00:29:19;15.60;99.90
23629;DHT22;11991;57.150;-2.134;2023-07-13T00:31:48;15.70;99.90
23629;DHT22;11991;57.150;-2.134;2023-07-13T00:34:16;15.70;99.90
23629;DHT22;11991;57.150;-2.134;2023-07-13T00:36:43;15.70;99.90
23629;DHT22;11991;57.150;-2.134;2023-07-13T00:39:10;15.70;99.90
23629;DHT22;11991;57.150;-2.134;2023-07-13T00:41:37;15.70;99.90
23629;DHT22;11991;57.150;-2.134;2023-07-13T00:44:04;15.70;99.90
23629;DHT22;11991;57.150;-2.134;2023-07-13T00:46:33;15.70;99.90
23629;DHT22;11991;57.150;-2.134;2023-07-13T00:49:08;15.70;99.90
23629;DHT22;11991;57.150;-2.134;2023-07-13T00:51:42;15.70;99.90
23629;DHT22;11991;57.150;-2.134;2023-07-13T00:54:17;15.70;99.90
23629;DHT22;11991;57.150;-2.134;2023-07-13T00:56:50;15.60;99.90
23629;DHT22;11991;57.150;-2.134;2023-07-13T00:59:18;15.60;99.90
23629;DHT22;11991;57.150;-2.134;2023-07-13T01:01:47;15.60;99.90
23629;DHT22;11991;57.150;-2.134;2023-07-13T01:04:15;15.60;99.90
23629;DHT22;11991;57.150;-2.134;2023-07-13T01:06:42;15.60;99.90
23629;DHT22;11991;57.150;-2.134;2023-07-13T01:09:11;15.60;99.90
23629;DHT22;11991;57.150;-2.134;2023-07-13T01:11:39;15.50;99.90
23629;DHT22;11991;57.150;-2.134;2023-07-13T01:14:07;15.50;99.90
23629;DHT22;11991;57.150;-2.134;2023-07-13T01:16:36;15.50;99.90
23629;DHT22;11991;57.150;-2.134;2023-07-13T01:19:14;15.40;99.90
23629;DHT22;11991;57.150;-2.134;2023-07-13T01:21:50;15.40;99.90
23629;DHT22;11991;57.150;-2.134;2023-07-13T01:24:18;15.40;99.90
23629;DHT22;11991;57.150;-2.134;2023-07-13T01:26:45;15.40;99.90
23629;DHT22;11991;57.150;-2.134;2023-07-13T01:29:12;15.30;99.90
23629;DHT22;11991;57.150;-2.134;2023-07-13T01:31:39;15.30;99.90
23629;DHT22;11991;57.150;-2.134;2023-07-13T01:34:06;15.20;99.90
23629;DHT22;11991;57.150;-2.134;2023-07-13T01:36:34;15.20;99.90
23629;DHT22;11991;57.150;-2.134;2023-07-13T01:39:03;15.20;99.90
23629;DHT22;11991;57.150;-2.134;2023-07-13T01:41:30;15.20;99.90
23629;DHT22;11991;57.150;-2.134;2023-07-13T01:43:57;15.10;99.90
23629;DHT22;11991;57.150;-2.134;2023-07-13T01:46:24;15.10;99.90
23629;DHT22;11991;57.150;-2.134;2023-07-13T01:48:52;15.00;99.90
23629;DHT22;11991;57.150;-2.134;2023-07-13T01:51:20;15.00;99.90
23629;DHT22;11991;57.150;-2.134;2023-07-13T01:53:47;15.00;99.90
23629;DHT22;11991;57.150;-2.134;2023-07-13T01:56:15;15.00;99.90
23629;DHT22;11991;57.150;-2.134;2023-07-13T01:58:43;15.00;99.90
23629;DHT22;11991;57.150;-2.134;2023-07-13T02:01:11;15.00;99.90
23629;DHT22;11991;57.150;-2.134;2023-07-13T02:03:38;15.00;99.90
23629;DHT22;11991;57.150;-2.134;2023-07-13T02:06:05;15.00;99.90
23629;DHT22;11991;57.150;-2.134;2023-07-13T02:08:33;15.00;99.90
23629;DHT22;11991;57.150;-2.134;2023-07-13T02:11:03;15.10;99.90
23629;DHT22;11991;57.150;-2.134;2023-07-13T02:13:30;15.10;99.90
23629;DHT22;11991;57.150;-2.134;2023-07-13T02:15:58;15.10;99.90
23629;DHT22;11991;57.150;-2.134;2023-07-13T02:18:25;15.20;99.90
23629;DHT22;11991;57.150;-2.134;2023-07-13T02:20:52;15.20;99.90
23629;DHT22;11991;57.150;-2.134;2023-07-13T02:23:20;15.20;99.90
23629;DHT22;11991;57.150;-2.134;2023-07-13T02:25:47;15.30;99.90
23629;DHT22;11991;57.150;-2.134;2023-07-13T02:28:15;15.30;99.90
23629;DHT22;11991;57.150;-2.134;2023-07-13T02:30:42;15.30;99.90
23629;DHT22;11991;57.150;-2.134;2023-07-13T02:33:10;15.30;99.90
23629;DHT22;11991;57.150;-2.134;2023-07-13T02:35:37;15.30;99.90
23629;DHT22;11991;57.150;-2.134;2023-07-13T02:38:04;15.40;99.90
23629;DHT22;11991;57.150;-2.134;2023-07-13T02:40:31;15.40;99.90
23629;DHT22;11991;57.150;-2.134;2023-07-13T02:43:00;15.40;99.90
23629;DHT22;11991;57.150;-2.134;2023-07-13T02:45:30;15.40;99.90
23629;DHT22;11991;57.150;-2.134;2023-07-13T02:47:58;15.40;99.90
23629;DHT22;11991;57.150;-2.134;2023-07-13T02:50:25;15.40;99.90
23629;DHT22;11991;57.150;-2.134;2023-07-13T02:52:52;15.40;99.90
23629;DHT22;11991;57.150;-2.134;2023-07-13T02:55:19;15.40;99.90
23629;DHT22;11991;57.150;-2.134;2023-07-13T02:57:47;15.40;99.90
23629;DHT22;11991;57.150;-2.134;2023-07-13T03:00:14;15.40;99.90
23629;DHT22;11991;57.150;-2.134;2023-07-13T03:02:43;15.40;99.90
23629;DHT22;11991;57.150;-2.134;2023-07-13T03:05:11;15.40;99.90
23629;DHT22;11991;57.150;-2.134;2023-07-13T03:07:41;15.40;99.90
23629;DHT22;11991;57.150;-2.134;2023-07-13T03:10:10;15.40;99.90
23629;DHT22;11991;57.150;-2.134;2023-07-13T03:12:44;15.40;99.90
23629;DHT22;11991;57.150;-2.134;2023-07-13T03:15:20;15.40;99.90
23629;DHT22;11991;57.150;-2.134;2023-07-13T03:17:48;15.40;99.90
23629;DHT22;11991;57.150;-2.134;2023-07-13T03:20:16;15.40;99.90
23629;DHT22;11991;57.150;-2.134;2023-07-13T03:22:44;15.40;99.90
23629;DHT22;11991;57.150;-2.134;2023-07-13T03:25:12;15.40;99.90
23629;DHT22;11991;57.150;-2.134;2023-07-13T03:27:39;15.30;99.90
23629;DHT22;11991;57.150;-2.134;2023-07-13T03:30:08;15.30;99.90
23629;DHT22;11991;57.150;-2.134;2023-07-13T03:32:36;15.30;99.90
23629;DHT22;11991;57.150;-2.134;2023-07-13T03:35:04;15.30;99.90
23629;DHT22;11991;57.150;-2.134;2023-07-13T03:37:31;15.30;99.90
23629;DHT22;11991;57.150;-2.134;2023-07-13T03:39:59;15.30;99.90
23629;DHT22;11991;57.150;-2.134;2023-07-13T03:42:28;15.30;99.90
23629;DHT22;11991;57.150;-2.134;2023-07-13T03:44:55;15.30;99.90
23629;DHT22;11991;57.150;-2.134;2023-07-13T03:47:22;15.30;99.90
23629;DHT22;11991;57.150;-2.134;2023-07-13T03:49:50;15.30;99.90
23629;DHT22;11991;57.150;-2.134;2023-07-13T03:52:17;15.30;99.90
23629;DHT22;11991;57.150;-2.134;2023-07-13T03:54:44;15.30;99.90
23629;DHT22;11991;57.150;-2.134;2023-07-13T03:57:11;15.30;99.90
23629;DHT22;11991;57.150;-2.134;2023-07-13T03:59:40;15.20;99.90
23629;DHT22;11991;57.150;-2.134;2023-07-13T04:02:08;15.20;99.90
23629;DHT22;11991;57.150;-2.134;2023-07-13T04:04:35;15.20;99.90
23629;DHT22;11991;57.150;-2.134;2023-07-13T04:07:03;15.20;99.90
23629;DHT22;11991;57.150;-2.134;2023-07-13T04:09:30;15.20;99.90
23629;DHT22;11991;57.150;-2.134;2023-07-13T04:11:57;15.20;99.90
23629;DHT22;11991;57.150;-2.134;2023-07-13T04:14:27;15.20;99.90
23629;DHT22;11991;57.150;-2.134;2023-07-13T04:16:54;15.10;99.90
23629;DHT22;11991;57.150;-2.134;2023-07-13T04:19:24;15.10;99.90
23629;DHT22;11991;57.150;-2.134;2023-07-13T04:21:51;15.10;99.90
23629;DHT22;11991;57.150;-2.134;2023-07-13T04:24:18;15.10;99.90
23629;DHT22;11991;57.150;-2.134;2023-07-13T04:26:46;15.10;99.90
23629;DHT22;11991;57.150;-2.134;2023-07-13T04:29:13;15.10;99.90
23629;DHT22;11991;57.150;-2.134;2023-07-13T04:31:40;15.10;99.90
23629;DHT22;11991;57.150;-2.134;2023-07-13T04:34:07;15.10;99.90
23629;DHT22;11991;57.150;-2.134;2023-07-13T04:36:34;15.10;99.90
23629;DHT22;11991;57.150;-2.134;2023-07-13T04:39:04;15.10;99.90
23629;DHT22;11991;57.150;-2.134;2023-07-13T04:41:31;15.10;99.90
23629;DHT22;11991;57.150;-2.134;2023-07-13T04:43:59;15.10;99.90
23629;DHT22;11991;57.150;-2.134;2023-07-13T04:46:26;15.20;99.90
23629;DHT22;11991;57.150;-2.134;2023-07-13T04:48:53;15.20;99.90
23629;DHT22;11991;57.150;-2.134;2023-07-13T04:51:21;15.20;99.90
23629;DHT22;11991;57.150;-2.134;2023-07-13T04:53:48;15.20;99.90
23629;DHT22;11991;57.150;-2.134;2023-07-13T04:56:17;15.20;99.90
23629;DHT22;11991;57.150;-2.134;2023-07-13T04:58:46;15.20;99.90
23629;DHT22;11991;57.150;-2.134;2023-07-13T05:01:13;15.20;99.90
23629;DHT22;11991;57.150;-2.134;2023-07-13T05:03:41;15.30;99.90
23629;DHT22;11991;57.150;-2.134;2023-07-13T05:06:08;15.30;99.90
23629;DHT22;11991;57.150;-2.134;2023-07-13T05:08:38;15.30;99.90
23629;DHT22;11991;57.150;-2.134;2023-07-13T05:11:06;15.30;99.90
23629;DHT22;11991;57.150;-2.134;2023-07-13T05:13:34;15.30;99.90
23629;DHT22;11991;57.150;-2.134;2023-07-13T05:16:04;15.30;99.90
23629;DHT22;11991;57.150;-2.134;2023-07-13T05:18:33;15.40;99.90
23629;DHT22;11991;57.150;-2.134;2023-07-13T05:21:03;15.40;99.90
23629;DHT22;11991;57.150;-2.134;2023-07-13T05:23:32;15.40;99.90
23629;DHT22;11991;57.150;-2.134;2023-07-13T05:26:00;15.40;99.90
23629;DHT22;11991;57.150;-2.134;2023-07-13T05:28:30;15.40;99.90
23629;DHT22;11991;57.150;-2.134;2023-07-13T05:30:57;15.30;99.90
23629;DHT22;11991;57.150;-2.134;2023-07-13T05:33:25;15.30;99.90
23629;DHT22;11991;57.150;-2.134;2023-07-13T05:35:53;15.30;99.90
23629;DHT22;11991;57.150;-2.134;2023-07-13T05:38:20;15.30;99.90
23629;DHT22;11991;57.150;-2.134;2023-07-13T05:40:47;15.30;99.90
23629;DHT22;11991;57.150;-2.134;2023-07-13T05:43:14;15.30;99.90
23629;DHT22;11991;57.150;-2.134;2023-07-13T05:45:42;15.30;99.90
23629;DHT22;11991;57.150;-2.134;2023-07-13T05:48:09;15.30;99.90
23629;DHT22;11991;57.150;-2.134;2023-07-13T05:50:36;15.30;99.90
23629;DHT22;11991;57.150;-2.134;2023-07-13T05:53:03;15.40;99.90
23629;DHT22;11991;57.150;-2.134;2023-07-13T05:55:31;15.50;99.90
23629;DHT22;11991;57.150;-2.134;2023-07-13T05:58:00;15.50;99.90
23629;DHT22;11991;57.150;-2.134;2023-07-13T06:00:27;15.60;99.90
23629;DHT22;11991;57.150;-2.134;2023-07-13T06:02:56;15.60;99.90
23629;DHT22;11991;57.150;-2.134;2023-07-13T06:05:23;15.70;99.90
23629;DHT22;11991;57.150;-2.134;2023-07-13T06:07:51;15.70;99.90
23629;DHT22;11991;57.150;-2.134;2023-07-13T06:10:18;15.80;99.90
23629;DHT22;11991;57.150;-2.134;2023-07-13T06:12:45;15.90;99.90
23629;DHT22;11991;57.150;-2.134;2023-07-13T06:15:12;16.00;99.90
23629;DHT22;11991;57.150;-2.134;2023-07-13T06:17:40;16.00;99.90
23629;DHT22;11991;57.150;-2.134;2023-07-13T06:20:07;16.10;99.90
23629;DHT22;11991;57.150;-2.134;2023-07-13T06:22:35;16.10;99.90
23629;DHT22;11991;57.150;-2.134;2023-07-13T06:25:02;16.00;99.90
23629;DHT22;11991;57.150;-2.134;2023-07-13T06:27:29;15.90;99.90
23629;DHT22;11991;57.150;-2.134;2023-07-13T06:29:57;15.90;99.90
23629;DHT22;11991;57.150;-2.134;2023-07-13T06:32:24;15.90;99.90
23629;DHT22;11991;57.150;-2.134;2023-07-13T06:34:51;15.90;99.90
23629;DHT22;11991;57.150;-2.134;2023-07-13T06:37:19;15.90;99.90
23629;DHT22;11991;57.150;-2.134;2023-07-13T06:39:46;15.80;99.90
23629;DHT22;11991;57.150;-2.134;2023-07-13T06:42:13;15.80;99.90
23629;DHT22;11991;57.150;-2.134;2023-07-13T06:44:40;15.70;99.90
23629;DHT22;11991;57.150;-2.134;2023-07-13T06:47:08;15.70;99.90
23629;DHT22;11991;57.150;-2.134;2023-07-13T06:49:35;15.70;99.90
23629;DHT22;11991;57.150;-2.134;2023-07-13T06:52:02;15.70;99.90
23629;DHT22;11991;57.150;-2.134;2023-07-13T06:54:29;15.70;99.90
23629;DHT22;11991;57.150;-2.134;2023-07-13T06:56:56;15.80;99.90
23629;DHT22;11991;57.150;-2.134;2023-07-13T06:59:24;15.80;99.90
23629;DHT22;11991;57.150;-2.134;2023-07-13T07:01:52;15.90;99.90
23629;DHT22;11991;57.150;-2.134;2023-07-13T07:04:19;15.90;99.90
23629;DHT22;11991;57.150;-2.134;2023-07-13T07:06:47;16.00;99.90
23629;DHT22;11991;57.150;-2.134;2023-07-13T07:09:15;16.00;99.90
23629;DHT22;11991;57.150;-2.134;2023-07-13T07:11:43;16.00;99.90
23629;DHT22;11991;57.150;-2.134;2023-07-13T07:14:29;16.10;99.90
23629;DHT22;11991;57.150;-2.134;2023-07-13T07:16:56;16.10;99.90
23629;DHT22;11991;57.150;-2.134;2023-07-13T07:19:26;16.10;99.90
23629;DHT22;11991;57.150;-2.134;2023-07-13T07:21:53;16.10;99.90
23629;DHT22;11991;57.150;-2.134;2023-07-13T07:24:20;16.10;99.90
23629;DHT22;11991;57.150;-2.134;2023-07-13T07:26:47;16.10;99.90
23629;DHT22;11991;57.150;-2.134;2023-07-13T07:29:17;16.20;99.90
23629;DHT22;11991;57.150;-2.134;2023-07-13T07:31:47;16.20;99.90
23629;DHT22;11991;57.150;-2.134;2023-07-13T07:34:30;16.20;99.90
23629;DHT22;11991;57.150;-2.134;2023-07-13T07:37:00;16.30;99.90
23629;DHT22;11991;57.150;-2.134;2023-07-13T07:39:30;16.30;99.90
23629;DHT22;11991;57.150;-2.134;2023-07-13T07:41:58;16.40;99.90
23629;DHT22;11991;57.150;-2.134;2023-07-13T07:44:25;16.50;99.90
23629;DHT22;11991;57.150;-2.134;2023-07-13T07:46:54;16.50;99.90
23629;DHT22;11991;57.150;-2.134;2023-07-13T07:49:21;16.60;99.90
23629;DHT22;11991;57.150;-2.134;2023-07-13T07:51:49;16.70;99.90
23629;DHT22;11991;57.150;-2.134;2023-07-13T07:54:16;16.90;99.90
23629;DHT22;11991;57.150;-2.134;2023-07-13T07:57:03;16.90;99.90
23629;DHT22;11991;57.150;-2.134;2023-07-13T07:59:33;17.00;99.90
23629;DHT22;11991;57.150;-2.134;2023-07-13T08:02:03;17.00;99.90
23629;DHT22;11991;57.150;-2.134;2023-07-13T08:04:34;17.10;99.90
23629;DHT22;11991;57.150;-2.134;2023-07-13T08:07:04;17.00;99.90
23629;DHT22;11991;57.150;-2.134;2023-07-13T08:09:31;16.90;99.90
23629;DHT22;11991;57.150;-2.134;2023-07-13T08:11:59;16.80;99.90
23629;DHT22;11991;57.150;-2.134;2023-07-13T08:14:29;16.80;99.90
23629;DHT22;11991;57.150;-2.134;2023-07-13T08:17:16;16.80;99.90
23629;DHT22;11991;57.150;-2.134;2023-07-13T08:19:43;16.90;99.90
23629;DHT22;11991;57.150;-2.134;2023-07-13T08:22:11;16.90;99.90
23629;DHT22;11991;57.150;-2.134;2023-07-13T08:24:38;16.90;99.90
23629;DHT22;11991;57.150;-2.134;2023-07-13T08:27:06;17.00;99.90
23629;DHT22;11991;57.150;-2.134;2023-07-13T08:29:33;17.00;99.90
23629;DHT22;11991;57.150;-2.134;2023-07-13T08:32:00;17.00;99.90
23629;DHT22;11991;57.150;-2.134;2023-07-13T08:34:27;17.00;99.90
23629;DHT22;11991;57.150;-2.134;2023-07-13T08:36:54;17.10;99.90
23629;DHT22;11991;57.150;-2.134;2023-07-13T08:39:22;17.10;99.90
23629;DHT22;11991;57.150;-2.134;2023-07-13T08:41:54;17.00;99.90
23629;DHT22;11991;57.150;-2.134;2023-07-13T08:45:00;17.00;99.90
23629;DHT22;11991;57.150;-2.134;2023-07-13T08:47:31;16.90;99.90
23629;DHT22;11991;57.150;-2.134;2023-07-13T08:49:59;16.90;99.90
23629;DHT22;11991;57.150;-2.134;2023-07-13T08:52:36;17.00;99.90
23629;DHT22;11991;57.150;-2.134;2023-07-13T08:55:21;17.00;99.90
23629;DHT22;11991;57.150;-2.134;2023-07-13T08:57:54;17.10;99.90
23629;DHT22;11991;57.150;-2.134;2023-07-13T09:00:25;17.20;99.90
23629;DHT22;11991;57.150;-2.134;2023-07-13T09:03:00;17.20;99.90
23629;DHT22;11991;57.150;-2.134;2023-07-13T09:05:38;17.30;99.90
23629;DHT22;11991;57.150;-2.134;2023-07-13T09:12:01;17.40;99.90
23629;DHT22;11991;57.150;-2.134;2023-07-13T09:16:54;17.60;99.90
23629;DHT22;11991;57.150;-2.134;2023-07-13T09:19:28;17.60;99.90
23629;DHT22;11991;57.150;-2.134;2023-07-13T09:21:57;17.70;99.90
23629;DHT22;11991;57.150;-2.134;2023-07-13T09:24:41;17.80;99.90
23629;DHT22;11991;57.150;-2.134;2023-07-13T09:27:22;17.80;99.90
23629;DHT22;11991;57.150;-2.134;2023-07-13T09:30:07;17.70;99.90
23629;DHT22;11991;57.150;-2.134;2023-07-13T09:32:41;17.70;99.90
23629;DHT22;11991;57.150;-2.134;2023-07-13T09:35:16;17.70;99.90
23629;DHT22;11991;57.150;-2.134;2023-07-13T09:37:45;17.70;99.90
23629;DHT22;11991;57.150;-2.134;2023-07-13T09:40:40;17.70;99.90
23629;DHT22;11991;57.150;-2.134;2023-07-13T09:43:10;17.70;99.90
23629;DHT22;11991;57.150;-2.134;2023-07-13T09:45:40;17.70;99.90
23629;DHT22;11991;57.150;-2.134;2023-07-13T09:48:11;17.60;99.90
23629;DHT22;11991;57.150;-2.134;2023-07-13T09:50:41;17.50;99.90
23629;DHT22;11991;57.150;-2.134;2023-07-13T09:53:16;17.50;99.90
23629;DHT22;11991;57.150;-2.134;2023-07-13T09:55:48;17.40;99.90
23629;DHT22;11991;57.150;-2.134;2023-07-13T09:58:24;17.20;99.90
23629;DHT22;11991;57.150;-2.134;2023-07-13T10:00:56;17.10;99.90
23629;DHT22;11991;57.150;-2.134;2023-07-13T10:03:26;17.10;99.90
23629;DHT22;11991;57.150;-2.134;2023-07-13T10:05:54;17.00;99.90
23629;DHT22;11991;57.150;-2.134;2023-07-13T10:08:29;16.90;99.90
23629;DHT22;11991;57.150;-2.134;2023-07-13T10:11:11;16.80;99.90
23629;DHT22;11991;57.150;-2.134;2023-07-13T10:13:47;16.80;99.90
23629;DHT22;11991;57.150;-2.134;2023-07-13T10:16:17;16.70;99.90
23629;DHT22;11991;57.150;-2.134;2023-07-13T10:18:57;16.60;99.90
23629;DHT22;11991;57.150;-2.134;2023-07-13T10:21:37;16.50;99.90
23629;DHT22;11991;57.150;-2.134;2023-07-13T10:24:27;16.40;99.90
23629;DHT22;11991;57.150;-2.134;2023-07-13T10:29:27;16.10;99.90
23629;DHT22;11991;57.150;-2.134;2023-07-13T10:31:56;16.10;99.90
23629;DHT22;11991;57.150;-2.134;2023-07-13T10:34:25;16.10;99.90
23629;DHT22;11991;57.150;-2.134;2023-07-13T10:36:52;16.00;99.90
23629;DHT22;11991;57.150;-2.134;2023-07-13T10:39:25;16.00;99.90
23629;DHT22;11991;57.150;-2.134;2023-07-13T10:42:03;15.90;99.90
23629;DHT22;11991;57.150;-2.134;2023-07-13T10:44:32;15.80;99.90
23629;DHT22;11991;57.150;-2.134;2023-07-13T10:47:12;15.80;99.90
23629;DHT22;11991;57.150;-2.134;2023-07-13T10:49:41;15.80;99.90
23629;DHT22;11991;57.150;-2.134;2023-07-13T10:52:40;15.90;99.90
23629;DHT22;11991;57.150;-2.134;2023-07-13T10:55:34;15.90;99.90
23629;DHT22;11991;57.150;-2.134;2023-07-13T11:00:47;15.90;99.90
23629;DHT22;11991;57.150;-2.134;2023-07-13T11:03:18;15.90;99.90
23629;DHT22;11991;57.150;-2.134;2023-07-13T11:05:50;15.90;99.90
23629;DHT22;11991;57.150;-2.134;2023-07-13T11:08:34;15.90;99.90
23629;DHT22;11991;57.150;-2.134;2023-07-13T11:11:03;16.00;99.90
23629;DHT22;11991;57.150;-2.134;2023-07-13T11:18:50;16.00;99.90
23629;DHT22;11991;57.150;-2.134;2023-07-13T11:21:25;16.00;99.90
23629;DHT22;11991;57.150;-2.134;2023-07-13T11:32:25;16.20;99.90
23629;DHT22;11991;57.150;-2.134;2023-07-13T11:34:57;16.20;99.90
23629;DHT22;11991;57.150;-2.134;2023-07-13T11:37:26;16.20;99.90
23629;DHT22;11991;57.150;-2.134;2023-07-13T11:39:55;16.20;99.90
23629;DHT22;11991;57.150;-2.134;2023-07-13T11:42:22;16.20;99.90
23629;DHT22;11991;57.150;-2.134;2023-07-13T11:44:52;16.20;99.90
23629;DHT22;11991;57.150;-2.134;2023-07-13T11:47:40;16.30;99.90
23629;DHT22;11991;57.150;-2.134;2023-07-13T11:50:21;16.30;99.90
23629;DHT22;11991;57.150;-2.134;2023-07-13T11:52:51;16.40;99.90
23629;DHT22;11991;57.150;-2.134;2023-07-13T11:55:22;16.40;99.90
23629;DHT22;11991;57.150;-2.134;2023-07-13T11:57:58;16.50;99.90
23629;DHT22;11991;57.150;-2.134;2023-07-13T12:00:28;16.50;99.90
23629;DHT22;11991;57.150;-2.134;2023-07-13T12:03:01;16.50;99.90
23629;DHT22;11991;57.150;-2.134;2023-07-13T12:05:29;16.50;99.90
23629;DHT22;11991;57.150;-2.134;2023-07-13T12:07:58;16.50;99.90
23629;DHT22;11991;57.150;-2.134;2023-07-13T12:10:27;16.60;99.90
23629;DHT22;11991;57.150;-2.134;2023-07-13T12:13:01;16.70;99.90
23629;DHT22;11991;57.150;-2.134;2023-07-13T12:15:46;16.80;99.90
23629;DHT22;11991;57.150;-2.134;2023-07-13T12:18:19;16.90;99.90
23629;DHT22;11991;57.150;-2.134;2023-07-13T12:20:48;16.90;99.90
23629;DHT22;11991;57.150;-2.134;2023-07-13T12:25:49;16.90;99.90
23629;DHT22;11991;57.150;-2.134;2023-07-13T12:31:08;17.00;99.90
23629;DHT22;11991;57.150;-2.134;2023-07-13T12:33:45;17.00;99.90
23629;DHT22;11991;57.150;-2.134;2023-07-13T12:36:13;17.10;99.90
23629;DHT22;11991;57.150;-2.134;2023-07-13T12:38:41;17.20;99.90
23629;DHT22;11991;57.150;-2.134;2023-07-13T12:41:15;17.20;99.90
23629;DHT22;11991;57.150;-2.134;2023-07-13T12:43:42;17.30;99.90
23629;DHT22;11991;57.150;-2.134;2023-07-13T12:46:20;17.20;99.90
23629;DHT22;11991;57.150;-2.134;2023-07-13T12:48:53;17.30;99.90
23629;DHT22;11991;57.150;-2.134;2023-07-13T12:51:38;17.40;99.90
23629;DHT22;11991;57.150;-2.134;2023-07-13T12:54:17;17.40;99.90
23629;DHT22;11991;57.150;-2.134;2023-07-13T12:56:49;17.50;99.90
23629;DHT22;11991;57.150;-2.134;2023-07-13T12:59:21;17.40;99.90
23629;DHT22;11991;57.150;-2.134;2023-07-13T13:01:49;17.50;99.90
23629;DHT22;11991;57.150;-2.134;2023-07-13T13:04:17;17.60;99.90
23629;DHT22;11991;57.150;-2.134;2023-07-13T13:06:58;17.70;99.90
23629;DHT22;11991;57.150;-2.134;2023-07-13T13:09:27;17.80;99.90
23629;DHT22;11991;57.150;-2.134;2023-07-13T13:11:55;17.90;99.90
23629;DHT22;11991;57.150;-2.134;2023-07-13T13:14:22;17.90;99.90
23629;DHT22;11991;57.150;-2.134;2023-07-13T13:16:50;17.90;99.90
23629;DHT22;11991;57.150;-2.134;2023-07-13T13:19:23;17.90;99.90
23629;DHT22;11991;57.150;-2.134;2023-07-13T13:21:52;17.90;99.90
23629;DHT22;11991;57.150;-2.134;2023-07-13T13:24:24;17.90;99.90
23629;DHT22;11991;57.150;-2.134;2023-07-13T13:26:53;17.90;99.90
23629;DHT22;11991;57.150;-2.134;2023-07-13T13:29:22;18.10;99.90
23629;DHT22;11991;57.150;-2.134;2023-07-13T13:31:53;18.10;99.90
23629;DHT22;11991;57.150;-2.134;2023-07-13T13:34:22;18.10;99.90
23629;DHT22;11991;57.150;-2.134;2023-07-13T13:36:51;18.10;99.90
23629;DHT22;11991;57.150;-2.134;2023-07-13T13:39:35;18.10;99.90
23629;DHT22;11991;57.150;-2.134;2023-07-13T13:42:04;18.10;99.90
23629;DHT22;11991;57.150;-2.134;2023-07-13T13:44:31;18.10;99.90
23629;DHT22;11991;57.150;-2.134;2023-07-13T13:46:58;18.20;99.90
23629;DHT22;11991;57.150;-2.134;2023-07-13T13:49:27;18.10;99.90
23629;DHT22;11991;57.150;-2.134;2023-07-13T13:51:55;18.20;99.90
23629;DHT22;11991;57.150;-2.134;2023-07-13T13:54:24;18.20;99.90
23629;DHT22;11991;57.150;-2.134;2023-07-13T13:56:53;18.30;99.90
23629;DHT22;11991;57.150;-2.134;2023-07-13T13:59:20;18.40;99.90
23629;DHT22;11991;57.150;-2.134;2023-07-13T14:01:48;18.30;99.90
23629;DHT22;11991;57.150;-2.134;2023-07-13T14:04:19;18.40;99.90
23629;DHT22;11991;57.150;-2.134;2023-07-13T14:06:47;18.30;99.90
23629;DHT22;11991;57.150;-2.134;2023-07-13T14:09:17;18.30;99.90
23629;DHT22;11991;57.150;-2.134;2023-07-13T14:11:50;18.40;99.90
23629;DHT22;11991;57.150;-2.134;2023-07-13T14:14:23;18.40;99.90
23629;DHT22;11991;57.150;-2.134;2023-07-13T14:16:51;18.40;99.90
23629;DHT22;11991;57.150;-2.134;2023-07-13T14:19:22;18.30;99.90
23629;DHT22;11991;57.150;-2.134;2023-07-13T14:21:50;18.30;99.90
23629;DHT22;11991;57.150;-2.134;2023-07-13T14:24:20;18.40;99.90
23629;DHT22;11991;57.150;-2.134;2023-07-13T14:26:48;18.50;99.90
23629;DHT22;11991;57.150;-2.134;2023-07-13T14:29:18;18.50;99.90
23629;DHT22;11991;57.150;-2.134;2023-07-13T14:31:50;18.60;99.90
23629;DHT22;11991;57.150;-2.134;2023-07-13T14:34:17;18.50;99.90
23629;DHT22;11991;57.150;-2.134;2023-07-13T14:36:47;18.50;99.90
23629;DHT22;11991;57.150;-2.134;2023-07-13T14:39:17;18.50;99.90
23629;DHT22;11991;57.150;-2.134;2023-07-13T14:41:45;18.60;99.90
23629;DHT22;11991;57.150;-2.134;2023-07-13T14:44:20;18.60;99.90
23629;DHT22;11991;57.150;-2.134;2023-07-13T14:46:50;18.80;99.90
23629;DHT22;11991;57.150;-2.134;2023-07-13T14:49:35;18.90;99.90
23629;DHT22;11991;57.150;-2.134;2023-07-13T14:52:13;19.00;99.90
23629;DHT22;11991;57.150;-2.134;2023-07-13T14:54:41;19.10;99.90
23629;DHT22;11991;57.150;-2.134;2023-07-13T14:57:18;19.20;99.90
23629;DHT22;11991;57.150;-2.134;2023-07-13T14:59:47;19.30;99.90
23629;DHT22;11991;57.150;-2.134;2023-07-13T15:02:27;19.30;99.90
23629;DHT22;11991;57.150;-2.134;2023-07-13T15:04:56;19.30;99.90
23629;DHT22;11991;57.150;-2.134;2023-07-13T15:07:24;19.20;99.90
23629;DHT22;11991;57.150;-2.134;2023-07-13T15:09:51;19.30;99.90
23629;DHT22;11991;57.150;-2.134;2023-07-13T15:12:19;19.20;99.90
23629;DHT22;11991;57.150;-2.134;2023-07-13T15:14:47;19.20;99.90
23629;DHT22;11991;57.150;-2.134;2023-07-13T15:17:28;19.10;99.90
23629;DHT22;11991;57.150;-2.134;2023-07-13T15:19:58;19.00;99.90
23629;DHT22;11991;57.150;-2.134;2023-07-13T15:22:26;19.00;99.90
23629;DHT22;11991;57.150;-2.134;2023-07-13T15:24:53;18.90;99.90
23629;DHT22;11991;57.150;-2.134;2023-07-13T15:27:25;18.80;99.90
23629;DHT22;11991;57.150;-2.134;2023-07-13T15:29:53;18.80;99.90
23629;DHT22;11991;57.150;-2.134;2023-07-13T15:32:20;18.70;99.90
23629;DHT22;11991;57.150;-2.134;2023-07-13T15:34:48;18.60;99.90
23629;DHT22;11991;57.150;-2.134;2023-07-13T15:37:16;18.60;99.90
23629;DHT22;11991;57.150;-2.134;2023-07-13T15:39:43;18.40;99.90
23629;DHT22;11991;57.150;-2.134;2023-07-13T15:42:15;18.30;99.90
23629;DHT22;11991;57.150;-2.134;2023-07-13T15:44:43;18.20;99.90
23629;DHT22;11991;57.150;-2.134;2023-07-13T15:47:11;18.10;99.90
23629;DHT22;11991;57.150;-2.134;2023-07-13T15:49:39;18.00;99.90
23629;DHT22;11991;57.150;-2.134;2023-07-13T15:52:33;17.90;99.90
23629;DHT22;11991;57.150;-2.134;2023-07-13T15:55:00;17.90;99.90
23629;DHT22;11991;57.150;-2.134;2023-07-13T15:57:28;17.90;99.90
23629;DHT22;11991;57.150;-2.134;2023-07-13T15:59:55;17.90;99.90
23629;DHT22;11991;57.150;-2.134;2023-07-13T16:02:22;18.00;99.90
23629;DHT22;11991;57.150;-2.134;2023-07-13T16:04:49;18.00;99.90